sensor_id;sensor_type;location;lat;lon;timestamp;pressure;altitude;pressure_sealevel;temperature;humidity
15884;BME280;8040;50.254;10.960;2023-02-12T00:00:43;100149.25;;;6.04;78.19
15884;BME280;8040;50.254;10.960;2023-02-12T00:03:09;100144.97;;;5.97;78.25
15884;BME280;8040;50.254;10.960;2023-02-12T00:05:38;100154.47;;;5.99;78.58
15884;BME280;8040;50.254;10.960;2023-02-12T00:08:06;100144.47;;;5.88;78.51
15884;BME280;8040;50.254;10.960;2023-02-12T00:10:31;100150.22;;;5.92;78.64
15884;BME280;8040;50.254;10.960;2023-02-12T00:12:57;100144.97;;;5.97;78.09
15884;BME280;8040;50.254;10.960;2023-02-12T00:15:22;100148.13;;;5.94;78.04
15884;BME280;8040;50.254;10.960;2023-02-12T00:17:47;100139.28;;;5.87;78.27
15884;BME280;8040;50.254;10.960;2023-02-12T00:20:13;100146.25;;;5.94;77.79
15884;BME280;8040;50.254;10.960;2023-02-12T00:22:38;100140.25;;;5.92;77.95
15884;BME280;8040;50.254;10.960;2023-02-12T00:25:04;100138.19;;;5.94;77.69
15884;BME280;8040;50.254;10.960;2023-02-12T00:27:33;100143.03;;;6.04;77.58
15884;BME280;8040;50.254;10.960;2023-02-12T00:29:58;100137.72;;;5.97;77.28
15884;BME280;8040;50.254;10.960;2023-02-12T00:32:24;100140.63;;;5.96;77.55
15884;BME280;8040;50.254;10.960;2023-02-12T00:34:49;100149.16;;;5.93;78.02
15884;BME280;8040;50.254;10.960;2023-02-12T00:37:15;100145.22;;;5.95;78.18
15884;BME280;8040;50.254;10.960;2023-02-12T00:39:41;100149.41;;;6.09;77.95
15884;BME280;8040;50.254;10.960;2023-02-12T00:42:07;100140.84;;;6.12;77.34
15884;BME280;8040;50.254;10.960;2023-02-12T00:44:32;100135.72;;;6.11;78.07
15884;BME280;8040;50.254;10.960;2023-02-12T00:46:57;100127.25;;;6.07;78.08
15884;BME280;8040;50.254;10.960;2023-02-12T00:49:27;100133.22;;;6.09;78.37
15884;BME280;8040;50.254;10.960;2023-02-12T00:51:53;100118.81;;;6.04;77.75
15884;BME280;8040;50.254;10.960;2023-02-12T00:54:18;100136.88;;;6.15;77.99
15884;BME280;8040;50.254;10.960;2023-02-12T00:56:43;100118.56;;;6.05;77.71
15884;BME280;8040;50.254;10.960;2023-02-12T00:59:09;100134.56;;;6.18;77.39
15884;BME280;8040;50.254;10.960;2023-02-12T01:01:34;100149.03;;;6.24;77.20
15884;BME280;8040;50.254;10.960;2023-02-12T01:04:00;100140.03;;;6.12;77.18
15884;BME280;8040;50.254;10.960;2023-02-12T01:06:25;100132.19;;;6.10;77.57
15884;BME280;8040;50.254;10.960;2023-02-12T01:08:51;100133.22;;;6.09;77.37
15884;BME280;8040;50.254;10.960;2023-02-12T01:11:17;100134.28;;;6.08;77.32
15884;BME280;8040;50.254;10.960;2023-02-12T01:13:42;100124.56;;;6.07;77.42
15884;BME280;8040;50.254;10.960;2023-02-12T01:16:17;100135.34;;;6.07;77.44
15884;BME280;8040;50.254;10.960;2023-02-12T01:18:43;100123.19;;;5.98;77.24
15884;BME280;8040;50.254;10.960;2023-02-12T01:21:11;100129.84;;;5.96;77.19
15884;BME280;8040;50.254;10.960;2023-02-12T01:23:37;100147.16;;;6.06;77.37
15884;BME280;8040;50.254;10.960;2023-02-12T01:26:03;100140.56;;;6.02;77.79
15884;BME280;8040;50.254;10.960;2023-02-12T01:28:29;100148.81;;;6.07;77.62
15884;BME280;8040;50.254;10.960;2023-02-12T01:30:54;100133.44;;;6.08;77.52
15884;BME280;8040;50.254;10.960;2023-02-12T01:33:19;100135.47;;;6.12;77.70
15884;BME280;8040;50.254;10.960;2023-02-12T01:35:45;100138.78;;;6.14;77.93
15884;BME280;8040;50.254;10.960;2023-02-12T01:38:10;100133.53;;;6.19;77.56
15884;BME280;8040;50.254;10.960;2023-02-12T01:40:36;100137.88;;;6.20;77.54
15884;BME280;8040;50.254;10.960;2023-02-12T01:43:05;100145.22;;;6.13;77.92
15884;BME280;8040;50.254;10.960;2023-02-12T01:45:46;100126.19;;;6.08;77.77
15884;BME280;8040;50.254;10.960;2023-02-12T01:48:14;100130.91;;;6.13;77.88
15884;BME280;8040;50.254;10.960;2023-02-12T01:50:41;100119.75;;;6.09;77.87
15884;BME280;8040;50.254;10.960;2023-02-12T01:53:08;100114.97;;;6.11;78.11
15884;BME280;8040;50.254;10.960;2023-02-12T01:55:33;100124.25;;;6.15;77.45
15884;BME280;8040;50.254;10.960;2023-02-12T01:57:59;100114.84;;;6.06;77.83
15884;BME280;8040;50.254;10.960;2023-02-12T02:00:24;100113.78;;;6.07;77.46
15884;BME280;8040;50.254;10.960;2023-02-12T02:02:56;100116.09;;;6.04;77.74
15884;BME280;8040;50.254;10.960;2023-02-12T02:05:32;100117.91;;;6.10;77.47
15884;BME280;8040;50.254;10.960;2023-02-12T02:08:00;100128.44;;;6.11;77.52
15884;BME280;8040;50.254;10.960;2023-02-12T02:10:28;100117.75;;;6.05;77.21
15884;BME280;8040;50.254;10.960;2023-02-12T02:12:53;100126.41;;;6.07;77.72
15884;BME280;8040;50.254;10.960;2023-02-12T02:15:39;100134.88;;;6.10;77.91
15884;BME280;8040;50.254;10.960;2023-02-12T02:18:11;100132.31;;;6.15;77.83
15884;BME280;8040;50.254;10.960;2023-02-12T02:26:27;100133.16;;;6.16;77.08
15884;BME280;8040;50.254;10.960;2023-02-12T02:34:31;100140.34;;;6.22;77.47
15884;BME280;8040;50.254;10.960;2023-02-12T02:39:40;100134.13;;;6.21;77.39
15884;BME280;8040;50.254;10.960;2023-02-12T02:42:15;100116.16;;;6.15;77.41
15884;BME280;8040;50.254;10.960;2023-02-12T02:44:49;100117.38;;;6.19;77.31
15884;BME280;8040;50.254;10.960;2023-02-12T02:47:18;100128.16;;;6.19;77.64
15884;BME280;8040;50.254;10.960;2023-02-12T02:49:50;100120.50;;;6.16;77.51
15884;BME280;8040;50.254;10.960;2023-02-12T02:52:28;100114.31;;;6.16;77.53
15884;BME280;8040;50.254;10.960;2023-02-12T02:54:59;100116.16;;;6.15;77.85
15884;BME280;8040;50.254;10.960;2023-02-12T02:57:50;100113.88;;;6.30;77.92
15884;BME280;8040;50.254;10.960;2023-02-12T03:00:22;100115.03;;;6.23;78.11
15884;BME280;8040;50.254;10.960;2023-02-12T03:02:52;100111.88;;;6.26;77.95
15884;BME280;8040;50.254;10.960;2023-02-12T03:05:24;100117.97;;;6.21;77.97
15884;BME280;8040;50.254;10.960;2023-02-12T03:07:56;100125.97;;;6.28;78.14
15884;BME280;8040;50.254;10.960;2023-02-12T03:10:29;100110.56;;;6.17;77.99
15884;BME280;8040;50.254;10.960;2023-02-12T03:13:06;100123.28;;;6.28;78.25
15884;BME280;8040;50.254;10.960;2023-02-12T03:15:39;100131.13;;;6.29;78.75
15884;BME280;8040;50.254;10.960;2023-02-12T03:18:13;100123.19;;;6.34;78.66
15884;BME280;8040;50.254;10.960;2023-02-12T03:20:48;100120.25;;;6.36;78.26
15884;BME280;8040;50.254;10.960;2023-02-12T03:23:24;100099.25;;;6.26;78.40
15884;BME280;8040;50.254;10.960;2023-02-12T03:26:13;100108.44;;;6.37;78.78
15884;BME280;8040;50.254;10.960;2023-02-12T03:28:42;100118.16;;;6.38;78.19
15884;BME280;8040;50.254;10.960;2023-02-12T03:39:15;100118.91;;;6.27;77.98
15884;BME280;8040;50.254;10.960;2023-02-12T03:41:46;100096.94;;;6.12;77.90
15884;BME280;8040;50.254;10.960;2023-02-12T03:44:32;100117.97;;;6.21;77.57
15884;BME280;8040;50.254;10.960;2023-02-12T03:47:22;100129.47;;;6.28;77.59
15884;BME280;8040;50.254;10.960;2023-02-12T03:50:10;100134.97;;;6.22;77.47
15884;BME280;8040;50.254;10.960;2023-02-12T03:52:37;100133.66;;;6.24;77.76
15884;BME280;8040;50.254;10.960;2023-02-12T03:55:03;100136.50;;;6.29;77.51
15884;BME280;8040;50.254;10.960;2023-02-12T03:57:40;100122.97;;;6.18;77.84
15884;BME280;8040;50.254;10.960;2023-02-12T04:00:13;100134.97;;;6.22;78.20
15884;BME280;8040;50.254;10.960;2023-02-12T04:02:41;100137.19;;;6.25;78.10
15884;BME280;8040;50.254;10.960;2023-02-12T04:05:07;100126.19;;;6.26;77.26
15884;BME280;8040;50.254;10.960;2023-02-12T04:07:34;100134.72;;;6.23;78.13
15884;BME280;8040;50.254;10.960;2023-02-12T04:10:01;100122.59;;;6.14;78.26
15884;BME280;8040;50.254;10.960;2023-02-12T04:12:54;100139.16;;;6.18;78.43
15884;BME280;8040;50.254;10.960;2023-02-12T04:15:34;100125.72;;;6.11;78.49
15884;BME280;8040;50.254;10.960;2023-02-12T04:18:10;100149.03;;;6.24;78.42
15884;BME280;8040;50.254;10.960;2023-02-12T04:23:54;100132.84;;;6.24;78.32
15884;BME280;8040;50.254;10.960;2023-02-12T04:31:39;100146.38;;;6.35;78.47
15884;BME280;8040;50.254;10.960;2023-02-12T04:34:11;100158.88;;;6.48;78.04
15884;BME280;8040;50.254;10.960;2023-02-12T04:36:44;100152.97;;;6.39;77.88
15884;BME280;8040;50.254;10.960;2023-02-12T04:39:16;100154.03;;;6.38;78.19
15884;BME280;8040;50.254;10.960;2023-02-12T04:41:43;100163.59;;;6.52;77.43
15884;BME280;8040;50.254;10.960;2023-02-12T04:44:21;100157.47;;;6.45;77.48
15884;BME280;8040;50.254;10.960;2023-02-12T04:46:48;100161.66;;;6.41;77.65
15884;BME280;8040;50.254;10.960;2023-02-12T04:49:16;100171.09;;;6.50;77.51
15884;BME280;8040;50.254;10.960;2023-02-12T04:51:42;100176.41;;;6.39;77.84
15884;BME280;8040;50.254;10.960;2023-02-12T04:54:08;100171.63;;;6.41;77.89
15884;BME280;8040;50.254;10.960;2023-02-12T04:56:33;100165.97;;;6.42;77.79
15884;BME280;8040;50.254;10.960;2023-02-12T04:58:58;100165.94;;;6.31;77.56
15884;BME280;8040;50.254;10.960;2023-02-12T05:01:24;100168.63;;;6.31;77.85
15884;BME280;8040;50.254;10.960;2023-02-12T05:03:51;100164.06;;;6.31;78.10
15884;BME280;8040;50.254;10.960;2023-02-12T05:06:17;100170.06;;;6.33;77.58
15884;BME280;8040;50.254;10.960;2023-02-12T05:08:42;100179.19;;;6.32;77.71
15884;BME280;8040;50.254;10.960;2023-02-12T05:11:09;100140.56;;;6.02;77.74
15884;BME280;8040;50.254;10.960;2023-02-12T05:13:35;100180.69;;;6.28;77.71
15884;BME280;8040;50.254;10.960;2023-02-12T05:16:05;100173.88;;;6.26;77.48
15884;BME280;8040;50.254;10.960;2023-02-12T05:18:31;100190.88;;;6.26;77.60
15884;BME280;8040;50.254;10.960;2023-02-12T05:20:58;100186.38;;;6.20;77.00
15884;BME280;8040;50.254;10.960;2023-02-12T05:23:26;100189.28;;;6.19;77.48
15884;BME280;8040;50.254;10.960;2023-02-12T05:25:52;100184.78;;;6.13;77.83
15884;BME280;8040;50.254;10.960;2023-02-12T05:28:18;100196.25;;;6.26;78.02
15884;BME280;8040;50.254;10.960;2023-02-12T05:30:43;100203.88;;;6.29;77.76
15884;BME280;8040;50.254;10.960;2023-02-12T05:33:08;100198.78;;;6.21;77.81
15884;BME280;8040;50.254;10.960;2023-02-12T05:35:36;100196.31;;;6.20;77.27
15884;BME280;8040;50.254;10.960;2023-02-12T05:38:01;100200.38;;;6.29;77.57
15884;BME280;8040;50.254;10.960;2023-02-12T05:40:27;100199.16;;;6.25;77.61
15884;BME280;8040;50.254;10.960;2023-02-12T05:42:56;100194.72;;;6.12;77.87
15884;BME280;8040;50.254;10.960;2023-02-12T05:45:21;100203.81;;;6.18;77.71
15884;BME280;8040;50.254;10.960;2023-02-12T05:47:52;100210.84;;;6.19;77.71
15884;BME280;8040;50.254;10.960;2023-02-12T05:50:18;100205.81;;;6.22;77.82
15884;BME280;8040;50.254;10.960;2023-02-12T05:52:44;100211.81;;;6.24;77.84
15884;BME280;8040;50.254;10.960;2023-02-12T05:55:09;100199.38;;;6.23;77.63
15884;BME280;8040;50.254;10.960;2023-02-12T05:57:34;100208.09;;;6.25;77.58
15884;BME280;8040;50.254;10.960;2023-02-12T06:00:05;100210.16;;;6.23;77.59
15884;BME280;8040;50.254;10.960;2023-02-12T06:02:32;100195.94;;;6.16;77.46
15884;BME280;8040;50.254;10.960;2023-02-12T06:04:58;100208.97;;;6.19;77.95
15884;BME280;8040;50.254;10.960;2023-02-12T06:07:23;100216.59;;;6.22;77.70
15884;BME280;8040;50.254;10.960;2023-02-12T06:09:48;100217.59;;;6.28;78.07
15884;BME280;8040;50.254;10.960;2023-02-12T06:12:15;100211.97;;;6.29;77.24
15884;BME280;8040;50.254;10.960;2023-02-12T06:14:40;100214.50;;;6.24;77.61
15884;BME280;8040;50.254;10.960;2023-02-12T06:17:06;100221.19;;;6.22;77.94
15884;BME280;8040;50.254;10.960;2023-02-12T06:19:31;100222.47;;;6.19;77.68
15884;BME280;8040;50.254;10.960;2023-02-12T06:21:57;100224.91;;;6.21;78.02
15884;BME280;8040;50.254;10.960;2023-02-12T06:24:22;100217.06;;;6.19;77.66
15884;BME280;8040;50.254;10.960;2023-02-12T06:26:49;100231.06;;;6.28;77.71
15884;BME280;8040;50.254;10.960;2023-02-12T06:29:15;100216.00;;;6.20;77.54
15884;BME280;8040;50.254;10.960;2023-02-12T06:31:40;100234.78;;;6.27;77.37
15884;BME280;8040;50.254;10.960;2023-02-12T06:34:08;100230.66;;;6.24;77.60
15884;BME280;8040;50.254;10.960;2023-02-12T06:36:36;100223.72;;;6.17;77.40
15884;BME280;8040;50.254;10.960;2023-02-12T06:39:02;100239.81;;;6.23;77.51
15884;BME280;8040;50.254;10.960;2023-02-12T06:41:27;100245.81;;;6.25;77.43
15884;BME280;8040;50.254;10.960;2023-02-12T06:43:53;100244.75;;;6.26;77.25
15884;BME280;8040;50.254;10.960;2023-02-12T06:46:18;100253.00;;;6.31;77.07
15884;BME280;8040;50.254;10.960;2023-02-12T06:48:46;100254.31;;;6.22;76.93
15884;BME280;8040;50.254;10.960;2023-02-12T06:51:14;100265.88;;;6.29;77.22
15884;BME280;8040;50.254;10.960;2023-02-12T06:53:39;100258.81;;;6.28;76.93
15884;BME280;8040;50.254;10.960;2023-02-12T06:56:07;100266.53;;;6.25;77.46
15884;BME280;8040;50.254;10.960;2023-02-12T06:58:38;100264.81;;;6.30;77.74
15884;BME280;8040;50.254;10.960;2023-02-12T07:01:16;100269.94;;;6.38;77.23
15884;BME280;8040;50.254;10.960;2023-02-12T07:03:53;100278.28;;;6.30;77.25
15884;BME280;8040;50.254;10.960;2023-02-12T07:06:19;100272.13;;;6.23;77.51
15884;BME280;8040;50.254;10.960;2023-02-12T07:08:47;100287.88;;;6.26;77.87
15884;BME280;8040;50.254;10.960;2023-02-12T07:11:12;100284.81;;;6.23;78.13
15884;BME280;8040;50.254;10.960;2023-02-12T07:13:42;100280.84;;;6.25;78.14
15884;BME280;8040;50.254;10.960;2023-02-12T07:16:14;100283.25;;;6.33;78.19
15884;BME280;8040;50.254;10.960;2023-02-12T07:18:41;100278.69;;;6.34;77.88
15884;BME280;8040;50.254;10.960;2023-02-12T07:21:07;100274.56;;;6.31;77.87
15884;BME280;8040;50.254;10.960;2023-02-12T07:23:37;100274.94;;;6.35;77.72
15884;BME280;8040;50.254;10.960;2023-02-12T07:26:05;100286.53;;;6.35;78.21
15884;BME280;8040;50.254;10.960;2023-02-12T07:28:31;100291.50;;;6.38;78.20
15884;BME280;8040;50.254;10.960;2023-02-12T07:33:33;100281.91;;;6.42;78.18
15884;BME280;8040;50.254;10.960;2023-02-12T07:35:59;100287.06;;;6.44;78.42
15884;BME280;8040;50.254;10.960;2023-02-12T07:38:25;100291.03;;;6.41;78.48
15884;BME280;8040;50.254;10.960;2023-02-12T07:40:50;100298.69;;;6.44;78.95
15884;BME280;8040;50.254;10.960;2023-02-12T07:43:15;100283.09;;;6.46;79.13
15884;BME280;8040;50.254;10.960;2023-02-12T07:45:41;100294.22;;;6.56;79.27
15884;BME280;8040;50.254;10.960;2023-02-12T07:48:06;100280.94;;;6.55;79.02
15884;BME280;8040;50.254;10.960;2023-02-12T07:50:31;100303.22;;;6.68;78.55
15884;BME280;8040;50.254;10.960;2023-02-12T07:52:57;100289.78;;;6.62;78.53
15884;BME280;8040;50.254;10.960;2023-02-12T07:55:22;100295.84;;;6.57;78.80
15884;BME280;8040;50.254;10.960;2023-02-12T07:57:48;100305.53;;;6.65;78.92
15884;BME280;8040;50.254;10.960;2023-02-12T08:00:13;100309.78;;;6.72;78.70
15884;BME280;8040;50.254;10.960;2023-02-12T08:02:39;100327.16;;;6.76;78.76
15884;BME280;8040;50.254;10.960;2023-02-12T08:05:05;100313.69;;;6.76;78.85
15884;BME280;8040;50.254;10.960;2023-02-12T08:07:30;100318.25;;;6.76;78.61
15884;BME280;8040;50.254;10.960;2023-02-12T08:09:56;100322.00;;;6.75;78.86
15884;BME280;8040;50.254;10.960;2023-02-12T08:12:21;100312.63;;;6.77;79.16
15884;BME280;8040;50.254;10.960;2023-02-12T08:14:48;100318.19;;;6.82;79.34
15884;BME280;8040;50.254;10.960;2023-02-12T08:17:13;100317.50;;;6.87;79.43
15884;BME280;8040;50.254;10.960;2023-02-12T08:19:39;100328.75;;;7.02;79.58
15884;BME280;8040;50.254;10.960;2023-02-12T08:22:04;100319.75;;;7.08;79.11
15884;BME280;8040;50.254;10.960;2023-02-12T08:24:30;100315.78;;;7.10;79.14
15884;BME280;8040;50.254;10.960;2023-02-12T08:26:56;100306.47;;;7.06;78.52
15884;BME280;8040;50.254;10.960;2023-02-12T08:29:27;100307.38;;;7.00;78.04
15884;BME280;8040;50.254;10.960;2023-02-12T08:39:39;100308.81;;;7.03;77.21
15884;BME280;8040;50.254;10.960;2023-02-12T08:42:04;100319.06;;;7.12;77.92
15884;BME280;8040;50.254;10.960;2023-02-12T08:44:30;100335.16;;;7.18;78.24
15884;BME280;8040;50.254;10.960;2023-02-12T08:46:56;100319.28;;;7.11;78.19
15884;BME280;8040;50.254;10.960;2023-02-12T08:49:24;100331.44;;;7.20;77.91
15884;BME280;8040;50.254;10.960;2023-02-12T08:51:52;100306.78;;;7.16;77.93
15884;BME280;8040;50.254;10.960;2023-02-12T08:54:20;100336.03;;;7.30;77.82
15884;BME280;8040;50.254;10.960;2023-02-12T08:56:46;100340.63;;;7.30;77.55
15884;BME280;8040;50.254;10.960;2023-02-12T08:59:12;100329.72;;;7.36;77.68
15884;BME280;8040;50.254;10.960;2023-02-12T09:01:39;100326.00;;;7.38;77.52
15884;BME280;8040;50.254;10.960;2023-02-12T09:04:13;100337.06;;;7.47;77.34
15884;BME280;8040;50.254;10.960;2023-02-12T09:06:39;100321.78;;;7.41;77.29
15884;BME280;8040;50.254;10.960;2023-02-12T09:09:05;100335.34;;;7.53;77.34
15884;BME280;8040;50.254;10.960;2023-02-12T09:11:33;100335.22;;;7.59;77.37
15884;BME280;8040;50.254;10.960;2023-02-12T09:14:01;100331.94;;;7.57;76.83
15884;BME280;8040;50.254;10.960;2023-02-12T09:16:29;100337.56;;;7.56;76.60
15884;BME280;8040;50.254;10.960;2023-02-12T09:18:55;100321.78;;;7.41;76.71
15884;BME280;8040;50.254;10.960;2023-02-12T09:21:21;100338.34;;;7.45;76.89
15884;BME280;8040;50.254;10.960;2023-02-12T09:23:46;100342.09;;;7.44;77.24
15884;BME280;8040;50.254;10.960;2023-02-12T09:26:16;100339.53;;;7.49;77.63
15884;BME280;8040;50.254;10.960;2023-02-12T09:28:42;100353.56;;;7.57;77.43
15884;BME280;8040;50.254;10.960;2023-02-12T09:31:17;100349.34;;;7.61;77.23
15884;BME280;8040;50.254;10.960;2023-02-12T09:33:43;100354.34;;;7.58;77.24
15884;BME280;8040;50.254;10.960;2023-02-12T09:36:14;100341.09;;;7.56;77.17
15884;BME280;8040;50.254;10.960;2023-02-12T09:38:40;100356.28;;;7.69;77.34
15884;BME280;8040;50.254;10.960;2023-02-12T09:51:58;100359.50;;;7.77;77.49
15884;BME280;8040;50.254;10.960;2023-02-12T09:54:30;100362.41;;;7.76;77.83
15884;BME280;8040;50.254;10.960;2023-02-12T09:57:06;100337.72;;;7.61;77.77
15884;BME280;8040;50.254;10.960;2023-02-12T09:59:44;100341.63;;;7.65;77.90
15884;BME280;8040;50.254;10.960;2023-02-12T10:02:22;100334.09;;;7.67;77.73
15884;BME280;8040;50.254;10.960;2023-02-12T10:04:53;100360.22;;;7.84;77.43
15884;BME280;8040;50.254;10.960;2023-02-12T10:07:37;100353.50;;;7.75;77.92
15884;BME280;8040;50.254;10.960;2023-02-12T10:13:07;100349.03;;;7.81;78.41
15884;BME280;8040;50.254;10.960;2023-02-12T10:18:36;100372.00;;;7.90;78.80
15884;BME280;8040;50.254;10.960;2023-02-12T10:24:12;100362.72;;;7.97;78.79
15884;BME280;8040;50.254;10.960;2023-02-12T10:26:49;100360.63;;;7.99;78.83
15884;BME280;8040;50.254;10.960;2023-02-12T10:29:20;100376.84;;;8.11;78.96
15884;BME280;8040;50.254;10.960;2023-02-12T10:31:52;100366.75;;;8.18;78.87
15884;BME280;8040;50.254;10.960;2023-02-12T10:34:21;100376.09;;;8.22;78.63
15884;BME280;8040;50.254;10.960;2023-02-12T10:36:49;100371.97;;;8.31;78.76
15884;BME280;8040;50.254;10.960;2023-02-12T10:41:59;100348.56;;;8.25;77.98
15884;BME280;8040;50.254;10.960;2023-02-12T10:44:26;100345.88;;;8.25;77.53
15884;BME280;8040;50.254;10.960;2023-02-12T10:46:52;100348.38;;;8.38;77.60
15884;BME280;8040;50.254;10.960;2023-02-12T10:49:18;100364.84;;;8.48;77.50
15884;BME280;8040;50.254;10.960;2023-02-12T10:52:09;100369.53;;;8.52;77.45
15884;BME280;8040;50.254;10.960;2023-02-12T10:57:13;100364.84;;;8.59;78.21
15884;BME280;8040;50.254;10.960;2023-02-12T10:59:40;100341.44;;;8.53;77.66
15884;BME280;8040;50.254;10.960;2023-02-12T11:02:32;100358.84;;;8.69;77.92
15884;BME280;8040;50.254;10.960;2023-02-12T11:05:00;100354.25;;;8.58;77.61
15884;BME280;8040;50.254;10.960;2023-02-12T11:07:48;100343.31;;;8.53;76.90
15884;BME280;8040;50.254;10.960;2023-02-12T11:10:20;100343.81;;;8.50;77.10
15884;BME280;8040;50.254;10.960;2023-02-12T11:12:46;100343.31;;;8.30;77.45
15884;BME280;8040;50.254;10.960;2023-02-12T11:15:14;100354.81;;;8.25;78.18
15884;BME280;8040;50.254;10.960;2023-02-12T11:17:43;100335.53;;;8.22;78.34
15884;BME280;8040;50.254;10.960;2023-02-12T11:23:00;100340.50;;;8.36;78.70
15884;BME280;8040;50.254;10.960;2023-02-12T11:25:29;100339.22;;;8.39;78.67
15884;BME280;8040;50.254;10.960;2023-02-12T11:28:03;100335.44;;;8.28;78.28
15884;BME280;8040;50.254;10.960;2023-02-12T11:30:30;100322.63;;;8.35;78.72
15884;BME280;8040;50.254;10.960;2023-02-12T11:33:13;100322.72;;;8.29;78.90
15884;BME280;8040;50.254;10.960;2023-02-12T11:35:49;100317.56;;;8.39;79.10
15884;BME280;8040;50.254;10.960;2023-02-12T11:38:21;100321.69;;;8.53;79.01
15884;BME280;8040;50.254;10.960;2023-02-12T11:40:54;100311.81;;;8.47;78.64
15884;BME280;8040;50.254;10.960;2023-02-12T11:43:20;100322.72;;;8.63;78.65
15884;BME280;8040;50.254;10.960;2023-02-12T11:45:50;100313.44;;;8.71;78.38
15884;BME280;8040;50.254;10.960;2023-02-12T11:48:32;100304.63;;;8.64;78.25
15884;BME280;8040;50.254;10.960;2023-02-12T11:51:03;100314.81;;;8.85;78.20
15884;BME280;8040;50.254;10.960;2023-02-12T11:53:32;100302.84;;;8.81;78.57
15884;BME280;8040;50.254;10.960;2023-02-12T11:56:04;100295.75;;;8.80;78.07
15884;BME280;8040;50.254;10.960;2023-02-12T11:58:30;100300.72;;;8.83;77.98
15884;BME280;8040;50.254;10.960;2023-02-12T12:01:21;100313.53;;;8.87;77.63
15884;BME280;8040;50.254;10.960;2023-02-12T12:03:59;100312.59;;;8.82;77.75
15884;BME280;8040;50.254;10.960;2023-02-12T12:09:27;100297.66;;;8.68;78.10
15884;BME280;8040;50.254;10.960;2023-02-12T12:12:20;100305.44;;;8.76;78.79
15884;BME280;8040;50.254;10.960;2023-02-12T12:17:57;100305.44;;;8.76;78.94
15884;BME280;8040;50.254;10.960;2023-02-12T12:20:46;100305.16;;;8.89;79.18
15884;BME280;8040;50.254;10.960;2023-02-12T12:26:12;100297.63;;;9.02;78.71
15884;BME280;8040;50.254;10.960;2023-02-12T12:28:51;100303.56;;;9.16;78.36
15884;BME280;8040;50.254;10.960;2023-02-12T12:31:27;100299.88;;;9.22;78.10
15884;BME280;8040;50.254;10.960;2023-02-12T12:34:20;100307.03;;;9.28;78.37
15884;BME280;8040;50.254;10.960;2023-02-12T12:36:54;100296.81;;;9.30;78.30
15884;BME280;8040;50.254;10.960;2023-02-12T12:39:31;100300.66;;;9.34;78.13
15884;BME280;8040;50.254;10.960;2023-02-12T12:48:11;100306.16;;;9.50;77.58
15884;BME280;8040;50.254;10.960;2023-02-12T13:04:12;100305.41;;;9.55;76.84
15884;BME280;8040;50.254;10.960;2023-02-12T13:09:36;100311.59;;;9.39;77.29
15884;BME280;8040;50.254;10.960;2023-02-12T13:17:26;100306.59;;;9.31;77.70
15884;BME280;8040;50.254;10.960;2023-02-12T13:20:09;100298.13;;;9.27;78.07
15884;BME280;8040;50.254;10.960;2023-02-12T13:27:50;100313.88;;;9.30;77.89
15884;BME280;8040;50.254;10.960;2023-02-12T13:30:20;100309.41;;;9.36;78.12
15884;BME280;8040;50.254;10.960;2023-02-12T13:33:00;100300.56;;;9.29;78.02
15884;BME280;8040;50.254;10.960;2023-02-12T13:35:29;100281.44;;;9.19;77.83
15884;BME280;8040;50.254;10.960;2023-02-12T13:37:55;100310.09;;;9.31;77.92
15884;BME280;8040;50.254;10.960;2023-02-12T13:40:26;100303.38;;;9.34;78.32
15884;BME280;8040;50.254;10.960;2023-02-12T13:43:14;100305.63;;;9.37;78.05
15884;BME280;8040;50.254;10.960;2023-02-12T13:45:49;100310.78;;;9.38;77.97
15884;BME280;8040;50.254;10.960;2023-02-12T13:48:22;100307.34;;;9.43;77.78
15884;BME280;8040;50.254;10.960;2023-02-12T13:58:59;100281.56;;;9.40;78.42
15884;BME280;8040;50.254;10.960;2023-02-12T14:07:05;100282.44;;;9.57;78.08
15884;BME280;8040;50.254;10.960;2023-02-12T14:11:58;100272.06;;;9.54;78.33
15884;BME280;8040;50.254;10.960;2023-02-12T14:14:34;100285.22;;;9.62;78.16
15884;BME280;8040;50.254;10.960;2023-02-12T14:20:11;100289.53;;;9.75;77.61
15884;BME280;8040;50.254;10.960;2023-02-12T14:27:44;100283.44;;;9.68;77.01
15884;BME280;8040;50.254;10.960;2023-02-12T14:35:39;100291.16;;;9.76;77.03
15884;BME280;8040;50.254;10.960;2023-02-12T14:45:48;100290.81;;;9.72;76.70
15884;BME280;8040;50.254;10.960;2023-02-12T14:53:52;100291.91;;;9.71;76.21
15884;BME280;8040;50.254;10.960;2023-02-12T14:56:21;100295.25;;;9.62;75.43
15884;BME280;8040;50.254;10.960;2023-02-12T14:58:48;100293.00;;;9.59;75.21
15884;BME280;8040;50.254;10.960;2023-02-12T15:01:15;100279.41;;;9.54;75.83
15884;BME280;8040;50.254;10.960;2023-02-12T15:03:50;100283.25;;;9.58;75.78
15884;BME280;8040;50.254;10.960;2023-02-12T15:06:33;100293.00;;;9.59;75.58
15884;BME280;8040;50.254;10.960;2023-02-12T15:09:07;100289.25;;;9.60;75.38
15884;BME280;8040;50.254;10.960;2023-02-12T15:11:47;100293.97;;;9.53;75.63
15884;BME280;8040;50.254;10.960;2023-02-12T15:14:24;100290.47;;;9.52;75.95
15884;BME280;8040;50.254;10.960;2023-02-12T15:16:58;100280.50;;;9.41;75.51
15884;BME280;8040;50.254;10.960;2023-02-12T15:19:50;100285.19;;;9.46;75.69
15884;BME280;8040;50.254;10.960;2023-02-12T15:22:38;100286.66;;;9.37;76.22
15884;BME280;8040;50.254;10.960;2023-02-12T15:27:47;100283.84;;;9.32;76.43
15884;BME280;8040;50.254;10.960;2023-02-12T15:30:19;100277.53;;;9.26;76.11
15884;BME280;8040;50.254;10.960;2023-02-12T15:32:45;100280.56;;;9.30;75.98
15884;BME280;8040;50.254;10.960;2023-02-12T15:35:38;100288.44;;;9.31;76.25
15884;BME280;8040;50.254;10.960;2023-02-12T15:38:20;100285.88;;;9.25;76.28
15884;BME280;8040;50.254;10.960;2023-02-12T15:40:57;100273.88;;;9.21;76.10
15884;BME280;8040;50.254;10.960;2023-02-12T15:43:26;100272.25;;;9.20;76.35
15884;BME280;8040;50.254;10.960;2023-02-12T15:45:53;100268.34;;;9.16;76.57
15884;BME280;8040;50.254;10.960;2023-02-12T15:48:22;100276.59;;;9.21;76.64
15884;BME280;8040;50.254;10.960;2023-02-12T15:53:41;100264.59;;;9.17;76.04